Time;durP1;ratioP1;P1;durP2;ratioP2;P2;SDS_P1;SDS_P2;PMS_P1;PMS_P2;Temp;Humidity;BMP_temperature;BMP_pressure;BME280_temperature;BME280_humidity;BME280_pressure;Samples;Min_cycle;Max_cycle;Signal;HPM_P1;HPM_P2
2023/07/31 00:01:07;;;;;;;4.10;2.13;;;;;;;;;;5053081;28;20156;-69
2023/07/31 00:03:52;;;;;;;7.10;1.88;;;;;;;;;;5048390;28;20543;-70
2023/07/31 00:06:38;;;;;;;3.70;1.77;;;;;;;;;;5053953;28;20509;-72
2023/07/31 00:09:23;;;;;;;3.72;1.83;;;;;;;;;;5061222;28;20480;-73
2023/07/31 00:12:08;;;;;;;5.10;1.88;;;;;;;;;;5051580;28;20379;-76
2023/07/31 00:14:53;;;;;;;7.75;2.92;;;;;;;;;;5043370;28;20025;-72
2023/07/31 00:17:39;;;;;;;5.45;1.92;;;;;;;;;;5052598;28;20135;-72
2023/07/31 00:20:24;;;;;;;2.97;1.65;;;;;;;;;;5049318;28;20467;-73
2023/07/31 00:23:09;;;;;;;3.13;1.70;;;;;;;;;;5052564;28;20231;-70
2023/07/31 00:25:54;;;;;;;4.10;2.28;;;;;;;;;;5050806;28;20060;-70
2023/07/31 00:28:40;;;;;;;4.95;2.10;;;;;;;;;;5041354;28;20055;-72
2023/07/31 00:31:25;;;;;;;4.80;2.00;;;;;;;;;;5046495;28;20036;-72
2023/07/31 00:34:10;;;;;;;8.25;1.92;;;;;;;;;;5056838;28;20036;-70
2023/07/31 00:36:55;;;;;;;5.07;2.10;;;;;;;;;;5057561;28;20162;-73
2023/07/31 00:39:41;;;;;;;2.45;1.63;;;;;;;;;;5057139;28;20037;-71
2023/07/31 00:42:26;;;;;;;3.17;1.70;;;;;;;;;;5044428;28;20031;-71
2023/07/31 00:45:11;;;;;;;2.70;1.65;;;;;;;;;;5052059;28;20557;-69
2023/07/31 00:47:57;;;;;;;5.00;1.80;;;;;;;;;;5050104;28;20025;-68
2023/07/31 00:50:42;;;;;;;5.85;2.20;;;;;;;;;;5057146;28;20068;-69
2023/07/31 00:53:27;;;;;;;5.40;1.85;;;;;;;;;;5055696;28;20068;-67
2023/07/31 00:56:13;;;;;;;9.90;2.33;;;;;;;;;;5057738;28;20033;-67
2023/07/31 00:58:58;;;;;;;3.90;2.08;;;;;;;;;;5053695;28;20024;-67
2023/07/31 01:01:43;;;;;;;6.03;1.77;;;;;;;;;;5055531;28;20558;-72
2023/07/31 01:04:28;;;;;;;4.43;2.50;;;;;;;;;;5056254;28;20033;-72
2023/07/31 01:07:20;;;;;;;6.65;2.15;;;;;;;;;;5054541;28;20028;-72
2023/07/31 01:10:11;;;;;;;4.45;1.70;;;;;;;;;;5049450;28;20483;-72
2023/07/31 01:12:56;;;;;;;4.63;2.00;;;;;;;;;;5046731;28;20219;-72
2023/07/31 01:15:41;;;;;;;4.60;2.25;;;;;;;;;;5042814;28;20075;-72
2023/07/31 01:18:27;;;;;;;4.15;1.80;;;;;;;;;;5055490;28;20044;-71
2023/07/31 01:21:26;;;;;;;9.80;2.22;;;;;;;;;;5053084;28;20450;-71
2023/07/31 01:24:22;;;;;;;6.18;1.95;;;;;;;;;;5041840;28;20522;-68
2023/07/31 01:27:13;;;;;;;4.25;1.60;;;;;;;;;;5054962;28;20040;-69
2023/07/31 01:30:18;;;;;;;3.10;1.88;;;;;;;;;;5050262;28;20036;-68
2023/07/31 01:33:07;;;;;;;2.92;1.50;;;;;;;;;;5052825;28;20029;-69
2023/07/31 01:35:52;;;;;;;5.43;2.05;;;;;;;;;;5050759;28;20033;-69
2023/07/31 01:38:37;;;;;;;5.03;2.33;;;;;;;;;;5053742;28;20433;-70
2023/07/31 01:41:22;;;;;;;4.70;1.60;;;;;;;;;;5049201;28;20037;-73
2023/07/31 01:44:08;;;;;;;3.47;1.88;;;;;;;;;;5040708;28;20029;-72
2023/07/31 01:46:53;;;;;;;3.95;1.92;;;;;;;;;;5035797;28;20053;-73
2023/07/31 01:49:38;;;;;;;5.95;2.20;;;;;;;;;;5038974;28;20039;-72
2023/07/31 01:52:23;;;;;;;7.45;1.80;;;;;;;;;;5048032;28;20100;-73
2023/07/31 01:55:08;;;;;;;3.70;1.95;;;;;;;;;;5053487;28;20032;-73
2023/07/31 01:57:54;;;;;;;5.25;1.83;;;;;;;;;;5042074;28;20026;-72
2023/07/31 02:00:39;;;;;;;6.80;1.98;;;;;;;;;;5039117;28;20024;-68
2023/07/31 02:03:24;;;;;;;5.03;2.15;;;;;;;;;;5061057;28;20475;-68
2023/07/31 02:06:10;;;;;;;3.47;1.90;;;;;;;;;;5046323;28;20052;-67
2023/07/31 02:08:55;;;;;;;9.57;2.65;;;;;;;;;;5053778;28;20542;-69
2023/07/31 02:11:40;;;;;;;7.57;2.97;;;;;;;;;;5055508;28;20033;-71
2023/07/31 02:14:25;;;;;;;10.80;4.20;;;;;;;;;;5061306;28;20052;-72
2023/07/31 02:17:10;;;;;;;11.45;4.40;;;;;;;;;;5043827;28;20029;-71
2023/07/31 02:19:56;;;;;;;12.40;5.95;;;;;;;;;;5048116;28;20045;-71
2023/07/31 02:22:41;;;;;;;8.98;3.65;;;;;;;;;;5051917;28;20032;-72
2023/07/31 02:25:26;;;;;;;7.78;2.65;;;;;;;;;;5051489;28;20053;-71
2023/07/31 02:28:11;;;;;;;3.92;2.13;;;;;;;;;;5055113;28;20479;-72
2023/07/31 02:30:56;;;;;;;10.80;3.42;;;;;;;;;;5026980;28;20040;-72
2023/07/31 02:33:42;;;;;;;10.30;5.97;;;;;;;;;;5046377;28;20029;-71
2023/07/31 02:36:27;;;;;;;8.60;4.72;;;;;;;;;;5049218;28;20446;-70
2023/07/31 02:39:12;;;;;;;6.63;4.45;;;;;;;;;;5055436;28;20106;-71
2023/07/31 02:41:57;;;;;;;8.82;4.32;;;;;;;;;;5058227;28;20038;-70
2023/07/31 02:44:43;;;;;;;5.95;3.55;;;;;;;;;;5053853;28;20544;-70
2023/07/31 02:47:28;;;;;;;5.57;2.42;;;;;;;;;;5042862;28;20111;-70
2023/07/31 02:50:13;;;;;;;4.07;2.25;;;;;;;;;;5051501;28;20048;-71
2023/07/31 02:52:58;;;;;;;6.40;2.53;;;;;;;;;;5056885;28;20040;-71
2023/07/31 02:55:43;;;;;;;8.10;2.60;;;;;;;;;;5053362;28;20043;-71
2023/07/31 02:58:29;;;;;;;7.45;1.98;;;;;;;;;;5054753;28;20031;-70
2023/07/31 03:01:14;;;;;;;3.13;1.70;;;;;;;;;;5054252;28;20471;-71
2023/07/31 03:03:59;;;;;;;4.88;2.22;;;;;;;;;;5054866;28;20039;-70
2023/07/31 03:06:44;;;;;;;4.63;1.83;;;;;;;;;;5011709;28;20040;-73
2023/07/31 03:09:30;;;;;;;5.50;2.05;;;;;;;;;;5041015;28;20089;-73
2023/07/31 03:12:15;;;;;;;6.05;1.83;;;;;;;;;;5041002;28;20041;-73
2023/07/31 03:15:00;;;;;;;6.88;2.40;;;;;;;;;;5051920;28;20066;-71
2023/07/31 03:17:46;;;;;;;4.10;2.00;;;;;;;;;;5044729;28;20062;-71
2023/07/31 03:20:31;;;;;;;4.10;1.70;;;;;;;;;;5032952;28;20040;-72
2023/07/31 03:23:16;;;;;;;5.35;2.10;;;;;;;;;;5049573;28;20032;-72
2023/07/31 03:26:05;;;;;;;7.95;2.05;;;;;;;;;;5049422;28;20041;-72
2023/07/31 03:28:50;;;;;;;5.38;1.98;;;;;;;;;;5054543;28;20446;-68
2023/07/31 03:31:36;;;;;;;6.80;2.30;;;;;;;;;;5053760;28;20481;-70
2023/07/31 03:34:21;;;;;;;3.10;1.67;;;;;;;;;;5038397;28;20423;-70
2023/07/31 03:37:06;;;;;;;9.13;2.15;;;;;;;;;;5046709;28;20085;-72
2023/07/31 03:39:51;;;;;;;4.35;2.15;;;;;;;;;;5048315;28;20032;-71
2023/07/31 03:42:36;;;;;;;6.03;2.03;;;;;;;;;;5054414;28;20422;-69
2023/07/31 03:45:22;;;;;;;5.00;2.10;;;;;;;;;;5041679;28;20077;-69
2023/07/31 03:48:07;;;;;;;8.02;3.08;;;;;;;;;;5054516;28;20491;-70
2023/07/31 03:50:53;;;;;;;6.38;2.05;;;;;;;;;;5048197;28;20063;-70
2023/07/31 03:53:38;;;;;;;6.38;2.25;;;;;;;;;;5044156;28;20043;-69
2023/07/31 03:56:23;;;;;;;7.32;2.13;;;;;;;;;;5038197;28;20029;-71
2023/07/31 03:59:08;;;;;;;6.95;2.47;;;;;;;;;;5046326;28;20029;-70
2023/07/31 04:01:53;;;;;;;5.25;2.00;;;;;;;;;;5042291;28;20029;-70
2023/07/31 04:04:39;;;;;;;4.57;2.40;;;;;;;;;;5048155;28;20532;-72
2023/07/31 04:07:24;;;;;;;5.05;2.30;;;;;;;;;;5050148;28;20129;-68
2023/07/31 04:10:09;;;;;;;6.43;2.22;;;;;;;;;;5053058;28;20055;-68
2023/07/31 04:12:54;;;;;;;4.13;1.88;;;;;;;;;;5053575;28;20024;-68
2023/07/31 04:15:40;;;;;;;7.18;2.13;;;;;;;;;;5053159;28;20040;-67
2023/07/31 04:18:25;;;;;;;5.85;2.05;;;;;;;;;;5050724;28;20487;-68
2023/07/31 04:21:11;;;;;;;7.70;2.42;;;;;;;;;;5043989;28;20422;-67
2023/07/31 04:23:58;;;;;;;5.47;2.17;;;;;;;;;;5043312;28;20460;-70
2023/07/31 04:26:43;;;;;;;10.90;2.28;;;;;;;;;;5048027;28;20037;-67
2023/07/31 04:29:28;;;;;;;6.57;2.45;;;;;;;;;;5049883;28;20064;-70
2023/07/31 04:32:16;;;;;;;3.40;1.70;;;;;;;;;;5049996;28;20504;-69
2023/07/31 04:35:02;;;;;;;8.52;2.60;;;;;;;;;;5053199;28;20071;-69
2023/07/31 04:37:48;;;;;;;6.97;2.20;;;;;;;;;;5058950;28;20391;-68
2023/07/31 04:40:33;;;;;;;9.07;2.30;;;;;;;;;;5051387;28;20403;-67
2023/07/31 04:43:20;;;;;;;7.07;2.72;;;;;;;;;;5050011;28;20045;-71
2023/07/31 04:46:05;;;;;;;3.97;2.20;;;;;;;;;;5028426;28;20029;-71
2023/07/31 04:48:50;;;;;;;5.18;2.10;;;;;;;;;;5055990;28;20020;-73
2023/07/31 04:51:35;;;;;;;3.55;1.70;;;;;;;;;;5048974;28;20623;-72
2023/07/31 04:54:21;;;;;;;3.85;1.60;;;;;;;;;;5049590;28;20206;-72
2023/07/31 04:57:06;;;;;;;14.52;3.05;;;;;;;;;;5052690;28;20040;-72
2023/07/31 04:59:51;;;;;;;2.70;1.63;;;;;;;;;;5037305;28;20474;-71
2023/07/31 05:02:37;;;;;;;4.78;2.20;;;;;;;;;;5051495;28;20466;-69
2023/07/31 05:05:22;;;;;;;2.95;1.90;;;;;;;;;;5036686;28;20021;-68
2023/07/31 05:08:07;;;;;;;3.60;2.20;;;;;;;;;;5034877;28;20029;-69
2023/07/31 05:10:52;;;;;;;5.55;2.28;;;;;;;;;;5051325;28;20032;-69
2023/07/31 05:13:38;;;;;;;5.78;2.05;;;;;;;;;;5049450;28;20037;-70
2023/07/31 05:16:23;;;;;;;6.88;2.72;;;;;;;;;;5052107;28;20029;-69
2023/07/31 05:19:08;;;;;;;4.45;2.25;;;;;;;;;;5052108;28;20100;-70
2023/07/31 05:21:53;;;;;;;5.07;1.80;;;;;;;;;;5052995;28;20119;-69
2023/07/31 05:24:39;;;;;;;4.88;2.00;;;;;;;;;;5050201;28;20035;-72
2023/07/31 05:27:24;;;;;;;6.47;2.60;;;;;;;;;;5036103;28;20070;-71
2023/07/31 05:30:09;;;;;;;9.95;2.92;;;;;;;;;;5046352;28;20024;-70
2023/07/31 05:32:54;;;;;;;5.13;2.10;;;;;;;;;;5049584;28;20032;-70
2023/07/31 05:35:40;;;;;;;3.33;2.08;;;;;;;;;;5050423;28;20506;-71
2023/07/31 05:38:25;;;;;;;4.40;2.00;;;;;;;;;;5050690;28;20044;-71
2023/07/31 05:41:13;;;;;;;6.47;2.25;;;;;;;;;;5052642;28;20039;-71
2023/07/31 05:43:58;;;;;;;6.60;2.30;;;;;;;;;;5056926;28;20137;-71
2023/07/31 05:46:43;;;;;;;4.15;1.60;;;;;;;;;;5050894;28;20035;-71
2023/07/31 05:49:29;;;;;;;17.15;3.08;;;;;;;;;;5052477;28;20474;-66
2023/07/31 05:52:14;;;;;;;4.72;2.80;;;;;;;;;;5049162;28;20032;-72
2023/07/31 05:55:00;;;;;;;4.47;2.10;;;;;;;;;;5052449;28;20032;-77
2023/07/31 05:57:45;;;;;;;8.73;2.30;;;;;;;;;;5049087;28;20025;-71
2023/07/31 06:00:30;;;;;;;4.43;2.30;;;;;;;;;;5053248;28;20043;-74
2023/07/31 06:03:16;;;;;;;5.07;1.80;;;;;;;;;;5054893;28;20111;-72
2023/07/31 06:06:01;;;;;;;4.05;1.75;;;;;;;;;;5055087;28;20036;-71
2023/07/31 06:08:46;;;;;;;2.63;1.80;;;;;;;;;;5048924;28;20525;-71
2023/07/31 06:11:31;;;;;;;3.97;1.77;;;;;;;;;;5042417;28;20028;-71
2023/07/31 06:14:17;;;;;;;8.05;2.05;;;;;;;;;;5059014;28;20694;-70
2023/07/31 06:17:02;;;;;;;4.97;2.08;;;;;;;;;;5052998;28;20475;-73
2023/07/31 06:19:47;;;;;;;3.78;1.88;;;;;;;;;;5053689;28;20029;-72
2023/07/31 06:22:32;;;;;;;6.82;1.98;;;;;;;;;;5046003;28;20479;-73
2023/07/31 06:25:18;;;;;;;3.67;1.95;;;;;;;;;;5042833;28;20029;-71
2023/07/31 06:28:03;;;;;;;4.55;1.95;;;;;;;;;;5054105;28;20074;-73
2023/07/31 06:30:48;;;;;;;3.83;1.60;;;;;;;;;;5040529;28;20047;-72
2023/07/31 06:33:33;;;;;;;5.82;2.40;;;;;;;;;;5050776;28;20025;-72
2023/07/31 06:36:19;;;;;;;7.55;2.67;;;;;;;;;;5040741;28;20064;-71
2023/07/31 06:39:04;;;;;;;4.43;2.47;;;;;;;;;;5048102;28;20085;-72
2023/07/31 06:41:49;;;;;;;5.80;1.75;;;;;;;;;;5049642;28;20439;-72
2023/07/31 06:44:34;;;;;;;4.93;1.92;;;;;;;;;;5046603;28;20035;-71
2023/07/31 06:47:20;;;;;;;2.50;1.90;;;;;;;;;;5044832;28;20111;-74
2023/07/31 06:50:05;;;;;;;4.35;1.80;;;;;;;;;;5038639;28;20056;-72
2023/07/31 06:52:50;;;;;;;5.93;1.85;;;;;;;;;;5048017;28;20136;-76
2023/07/31 06:55:36;;;;;;;4.43;1.65;;;;;;;;;;5046134;28;20033;-73
2023/07/31 06:58:21;;;;;;;5.35;2.03;;;;;;;;;;5055049;28;20066;-72
2023/07/31 07:01:06;;;;;;;3.97;1.85;;;;;;;;;;5053851;28;20044;-72
2023/07/31 07:03:52;;;;;;;6.20;2.30;;;;;;;;;;5055308;28;20040;-74
2023/07/31 07:06:37;;;;;;;2.88;1.75;;;;;;;;;;5043060;28;20026;-71
2023/07/31 07:09:22;;;;;;;5.18;1.83;;;;;;;;;;5054550;28;20048;-73
2023/07/31 07:12:08;;;;;;;5.72;2.35;;;;;;;;;;5040973;28;20032;-75
2023/07/31 07:14:53;;;;;;;4.80;1.77;;;;;;;;;;5053493;28;20040;-76
2023/07/31 07:17:38;;;;;;;6.90;2.42;;;;;;;;;;5052743;28;20453;-75
2023/07/31 07:20:24;;;;;;;5.75;2.45;;;;;;;;;;5054459;28;20025;-76
2023/07/31 07:23:09;;;;;;;7.32;2.70;;;;;;;;;;5051433;28;20517;-74
2023/07/31 07:25:54;;;;;;;6.38;2.60;;;;;;;;;;5054463;28;20036;-76
2023/07/31 07:28:39;;;;;;;5.55;1.92;;;;;;;;;;5042191;28;20028;-70
2023/07/31 07:31:25;;;;;;;3.60;1.60;;;;;;;;;;5039995;28;20540;-70
2023/07/31 07:34:10;;;;;;;4.93;2.05;;;;;;;;;;5054025;28;20028;-70
2023/07/31 07:36:55;;;;;;;6.57;2.42;;;;;;;;;;5056686;28;20490;-72
2023/07/31 07:39:41;;;;;;;4.70;2.22;;;;;;;;;;5057437;28;20032;-71
2023/07/31 07:42:26;;;;;;;4.75;2.38;;;;;;;;;;5042651;28;20067;-70
2023/07/31 07:45:11;;;;;;;6.38;1.88;;;;;;;;;;5045162;28;20431;-80
2023/07/31 07:47:57;;;;;;;7.38;1.73;;;;;;;;;;5061346;28;20028;-74
2023/07/31 07:50:43;;;;;;;8.07;3.35;;;;;;;;;;5039517;28;20036;-77
2023/07/31 07:53:28;;;;;;;5.22;2.10;;;;;;;;;;5053967;28;20055;-75
2023/07/31 07:56:13;;;;;;;5.25;2.78;;;;;;;;;;5050010;28;20024;-75
2023/07/31 07:58:58;;;;;;;4.80;2.05;;;;;;;;;;5052180;28;20035;-75
2023/07/31 08:01:43;;;;;;;6.38;2.38;;;;;;;;;;5053414;28;20025;-77
2023/07/31 08:04:29;;;;;;;5.22;2.58;;;;;;;;;;5054387;28;20379;-71
2023/07/31 08:07:14;;;;;;;3.85;1.73;;;;;;;;;;5054582;28;20024;-80
2023/07/31 08:10:00;;;;;;;7.00;1.75;;;;;;;;;;5057320;28;20063;-80
2023/07/31 08:12:45;;;;;;;7.97;2.35;;;;;;;;;;5044863;28;20045;-81
2023/07/31 08:15:30;;;;;;;6.03;2.45;;;;;;;;;;5040681;28;20499;-80
2023/07/31 08:18:17;;;;;;;6.07;2.20;;;;;;;;;;5053350;28;20107;-80
2023/07/31 08:21:02;;;;;;;4.97;1.83;;;;;;;;;;5046274;28;20112;-83
2023/07/31 08:23:48;;;;;;;5.68;2.00;;;;;;;;;;5047328;28;20033;-71
2023/07/31 08:26:33;;;;;;;7.68;2.97;;;;;;;;;;5050855;28;20052;-77
2023/07/31 08:29:18;;;;;;;4.05;1.90;;;;;;;;;;5052868;28;20070;-73
2023/07/31 08:32:04;;;;;;;4.18;2.03;;;;;;;;;;5047785;28;20041;-75
2023/07/31 08:34:49;;;;;;;8.65;2.85;;;;;;;;;;5035428;28;20094;-74
2023/07/31 08:37:34;;;;;;;6.25;2.55;;;;;;;;;;5047574;28;20032;-77
2023/07/31 08:40:21;;;;;;;6.30;2.10;;;;;;;;;;5050991;28;20024;-76
2023/07/31 08:43:07;;;;;;;5.78;2.10;;;;;;;;;;5051121;28;20039;-71
2023/07/31 08:45:52;;;;;;;5.93;2.05;;;;;;;;;;5040296;28;20036;-73
2023/07/31 08:48:38;;;;;;;6.50;2.70;;;;;;;;;;5052886;28;20028;-74
2023/07/31 08:51:24;;;;;;;7.13;2.85;;;;;;;;;;5038568;28;20399;-74
2023/07/31 08:54:09;;;;;;;4.90;2.33;;;;;;;;;;5051921;28;20075;-73
2023/07/31 08:56:55;;;;;;;4.70;1.80;;;;;;;;;;5054741;28;20139;-72
2023/07/31 08:59:41;;;;;;;11.57;2.38;;;;;;;;;;5045349;28;20036;-69
2023/07/31 09:02:31;;;;;;;10.73;2.83;;;;;;;;;;5052058;28;20040;-75
2023/07/31 09:05:16;;;;;;;5.30;2.10;;;;;;;;;;5056501;28;20519;-75
2023/07/31 09:08:03;;;;;;;8.05;2.28;;;;;;;;;;5056592;28;20170;-76
2023/07/31 09:10:49;;;;;;;6.47;2.55;;;;;;;;;;5056491;28;20032;-75
2023/07/31 09:13:35;;;;;;;6.57;2.63;;;;;;;;;;5026311;28;20032;-75
2023/07/31 09:16:27;;;;;;;4.72;1.75;;;;;;;;;;5047048;28;20036;-77
2023/07/31 09:19:12;;;;;;;13.45;2.75;;;;;;;;;;5049052;28;20041;-70
2023/07/31 09:21:58;;;;;;;7.22;2.50;;;;;;;;;;5045381;28;20043;-69
2023/07/31 09:24:43;;;;;;;6.07;2.33;;;;;;;;;;5056544;28;20595;-70
2023/07/31 09:27:36;;;;;;;7.82;2.17;;;;;;;;;;5057037;28;20033;-68
2023/07/31 09:30:21;;;;;;;7.40;2.42;;;;;;;;;;5042603;28;20040;-71
2023/07/31 09:33:09;;;;;;;8.52;3.50;;;;;;;;;;5054214;28;20028;-70
2023/07/31 09:35:54;;;;;;;7.57;2.20;;;;;;;;;;5040960;28;20043;-76
2023/07/31 09:38:39;;;;;;;4.95;2.40;;;;;;;;;;5056097;28;20036;-75
2023/07/31 09:41:24;;;;;;;6.38;2.28;;;;;;;;;;5055646;28;20048;-75
2023/07/31 09:44:10;;;;;;;6.55;1.80;;;;;;;;;;5044667;28;20469;-75
2023/07/31 09:46:55;;;;;;;5.22;2.15;;;;;;;;;;5054601;28;20032;-75
2023/07/31 09:49:45;;;;;;;5.05;2.22;;;;;;;;;;5053560;28;20036;-76
2023/07/31 09:52:30;;;;;;;5.80;2.60;;;;;;;;;;5043130;28;20029;-76
2023/07/31 09:55:15;;;;;;;4.22;1.85;;;;;;;;;;5039518;28;20052;-73
2023/07/31 09:58:05;;;;;;;4.50;2.00;;;;;;;;;;5054814;28;20036;-76
2023/07/31 10:00:50;;;;;;;10.57;3.03;;;;;;;;;;5052199;28;20032;-75
2023/07/31 10:03:37;;;;;;;4.75;2.13;;;;;;;;;;5055739;28;20040;-76
2023/07/31 10:06:23;;;;;;;7.00;2.22;;;;;;;;;;5045531;28;20036;-76
2023/07/31 10:09:10;;;;;;;6.55;2.40;;;;;;;;;;5055759;28;20232;-74
2023/07/31 10:12:02;;;;;;;4.40;1.95;;;;;;;;;;5045476;28;20854;-74
2023/07/31 10:14:47;;;;;;;6.70;2.60;;;;;;;;;;5052753;28;20028;-76
2023/07/31 10:17:34;;;;;;;6.07;2.40;;;;;;;;;;5054227;28;20232;-73
2023/07/31 10:20:22;;;;;;;6.40;2.30;;;;;;;;;;5024352;28;20024;-73
2023/07/31 10:23:08;;;;;;;5.40;2.63;;;;;;;;;;5051751;28;20355;-74
2023/07/31 10:25:54;;;;;;;4.47;2.25;;;;;;;;;;5054999;28;20040;-74
2023/07/31 10:28:39;;;;;;;7.85;2.88;;;;;;;;;;5036896;28;20067;-74
2023/07/31 10:31:25;;;;;;;6.80;3.40;;;;;;;;;;5050656;28;20029;-74
2023/07/31 10:34:10;;;;;;;5.25;1.80;;;;;;;;;;5051058;28;20041;-71
2023/07/31 10:37:14;;;;;;;5.88;2.40;;;;;;;;;;5055282;28;20028;-72
2023/07/31 10:40:01;;;;;;;8.60;2.85;;;;;;;;;;5050353;28;20033;-69
2023/07/31 10:42:47;;;;;;;5.72;2.53;;;;;;;;;;5064825;28;20164;-69
2023/07/31 10:45:39;;;;;;;4.45;2.20;;;;;;;;;;5052804;28;20036;-70
2023/07/31 10:48:32;;;;;;;8.85;2.50;;;;;;;;;;5057594;28;20515;-71
2023/07/31 10:51:20;;;;;;;5.57;3.00;;;;;;;;;;5054707;28;20025;-70
2023/07/31 10:54:16;;;;;;;4.20;2.53;;;;;;;;;;5054775;28;20535;-71
2023/07/31 10:57:01;;;;;;;4.93;2.28;;;;;;;;;;5053657;28;20543;-70
2023/07/31 10:59:46;;;;;;;6.80;2.50;;;;;;;;;;5052483;28;20422;-70
2023/07/31 11:02:33;;;;;;;6.80;2.63;;;;;;;;;;5052700;28;20032;-71
2023/07/31 11:05:19;;;;;;;6.65;2.40;;;;;;;;;;5050683;28;20071;-70
2023/07/31 11:08:10;;;;;;;7.95;2.65;;;;;;;;;;5055276;28;20396;-77
2023/07/31 11:11:01;;;;;;;7.10;2.42;;;;;;;;;;5034242;28;20601;-70
2023/07/31 11:13:49;;;;;;;7.35;2.30;;;;;;;;;;5043634;28;20063;-70
2023/07/31 11:16:34;;;;;;;6.20;2.53;;;;;;;;;;5052981;28;20028;-71
2023/07/31 11:19:23;;;;;;;8.63;2.90;;;;;;;;;;5052974;28;20028;-71
2023/07/31 11:22:09;;;;;;;;;;;;;;;;;;5053738;28;20437;-72
2023/07/31 11:24:54;;;;;;;5.25;2.60;;;;;;;;;;5041774;28;19919;-71
2023/07/31 11:27:40;;;;;;;5.72;2.67;;;;;;;;;;5040855;28;20042;-75
2023/07/31 11:30:25;;;;;;;4.75;2.60;;;;;;;;;;5027270;28;20026;-71
2023/07/31 11:33:11;;;;;;;8.32;2.35;;;;;;;;;;5037524;28;20028;-69
2023/07/31 11:35:57;;;;;;;5.15;2.22;;;;;;;;;;5048335;28;20052;-70
2023/07/31 11:38:42;;;;;;;6.97;3.25;;;;;;;;;;5049160;28;20071;-69
2023/07/31 11:41:29;;;;;;;7.63;3.97;;;;;;;;;;5061731;28;20029;-70
2023/07/31 11:44:14;;;;;;;9.75;2.58;;;;;;;;;;5031462;28;20028;-74
2023/07/31 11:47:00;;;;;;;8.60;3.40;;;;;;;;;;5035786;28;20413;-74
2023/07/31 11:49:46;;;;;;;4.20;2.28;;;;;;;;;;5044704;28;20139;-70
2023/07/31 11:52:37;;;;;;;10.75;3.65;;;;;;;;;;5038974;28;20025;-70
2023/07/31 11:55:23;;;;;;;6.90;3.13;;;;;;;;;;5048652;28;20425;-71
2023/07/31 11:58:09;;;;;;;8.73;3.25;;;;;;;;;;5055616;28;20032;-71
2023/07/31 12:00:54;;;;;;;3.80;2.17;;;;;;;;;;5052953;28;20082;-74
2023/07/31 12:03:42;;;;;;;4.38;2.35;;;;;;;;;;5053678;28;20294;-71
2023/07/31 12:06:32;;;;;;;5.28;2.60;;;;;;;;;;5050750;28;20032;-71
2023/07/31 12:09:17;;;;;;;7.88;2.53;;;;;;;;;;5053727;28;20032;-71
2023/07/31 12:12:07;;;;;;;6.65;2.45;;;;;;;;;;5046588;28;20520;-71
2023/07/31 12:14:52;;;;;;;5.80;2.88;;;;;;;;;;5053331;28;20054;-71
2023/07/31 12:17:38;;;;;;;8.60;2.67;;;;;;;;;;5044888;28;20035;-71
2023/07/31 12:20:23;;;;;;;5.30;2.53;;;;;;;;;;5066161;28;20047;-71
2023/07/31 12:23:12;;;;;;;5.47;2.45;;;;;;;;;;5051622;28;20081;-70
2023/07/31 12:26:05;;;;;;;5.95;2.25;;;;;;;;;;5066493;28;20017;-76
2023/07/31 12:28:54;;;;;;;5.07;2.25;;;;;;;;;;5048011;28;20033;-74
2023/07/31 12:31:40;;;;;;;7.00;2.70;;;;;;;;;;5060876;28;20059;-75
2023/07/31 12:34:26;;;;;;;7.60;4.10;;;;;;;;;;5059905;28;20307;-75
2023/07/31 12:37:11;;;;;;;5.72;2.75;;;;;;;;;;5053039;28;20116;-75
2023/07/31 12:40:03;;;;;;;10.82;2.83;;;;;;;;;;5059963;28;20423;-77
2023/07/31 12:42:48;;;;;;;6.38;2.90;;;;;;;;;;5053960;28;20483;-75
2023/07/31 12:45:34;;;;;;;4.47;2.30;;;;;;;;;;5060565;28;20094;-76
2023/07/31 12:48:19;;;;;;;5.68;3.22;;;;;;;;;;5053217;28;20029;-75
2023/07/31 12:51:06;;;;;;;5.57;2.53;;;;;;;;;;5060323;28;20045;-76
2023/07/31 12:53:51;;;;;;;4.82;2.78;;;;;;;;;;5052483;28;20024;-78
2023/07/31 12:56:37;;;;;;;7.38;2.90;;;;;;;;;;5034231;28;20037;-76
2023/07/31 12:59:22;;;;;;;7.22;2.60;;;;;;;;;;5052701;28;20029;-71
2023/07/31 13:02:07;;;;;;;5.10;2.63;;;;;;;;;;5046712;28;20059;-73
2023/07/31 13:04:54;;;;;;;4.65;2.28;;;;;;;;;;5048223;28;20061;-71
2023/07/31 13:07:39;;;;;;;6.70;2.47;;;;;;;;;;5046757;28;20496;-70
2023/07/31 13:10:26;;;;;;;8.65;2.80;;;;;;;;;;5047364;28;20041;-71
2023/07/31 13:13:12;;;;;;;5.57;2.65;;;;;;;;;;5056709;28;20547;-71
2023/07/31 13:15:57;;;;;;;9.85;2.75;;;;;;;;;;5055930;28;20451;-72
2023/07/31 13:18:42;;;;;;;6.20;2.08;;;;;;;;;;5045661;28;20382;-72
2023/07/31 13:21:27;;;;;;;6.13;2.55;;;;;;;;;;5061268;28;20056;-72
2023/07/31 13:24:13;;;;;;;6.20;2.95;;;;;;;;;;5047611;28;20036;-71
2023/07/31 13:26:58;;;;;;;6.65;2.38;;;;;;;;;;5038556;28;20103;-71
2023/07/31 13:29:43;;;;;;;5.88;3.28;;;;;;;;;;5064231;28;20028;-71
2023/07/31 13:32:29;;;;;;;6.35;2.60;;;;;;;;;;5061783;28;20080;-71
2023/07/31 13:35:14;;;;;;;6.93;2.50;;;;;;;;;;5057202;28;20094;-70
2023/07/31 13:38:00;;;;;;;9.25;3.63;;;;;;;;;;5050423;28;20021;-70
2023/07/31 13:40:45;;;;;;;4.90;2.42;;;;;;;;;;5056236;28;20035;-71
2023/07/31 13:43:30;;;;;;;5.20;2.65;;;;;;;;;;5053886;28;20026;-71
2023/07/31 13:46:15;;;;;;;7.20;2.83;;;;;;;;;;5056534;28;20116;-70
2023/07/31 13:49:01;;;;;;;7.57;2.70;;;;;;;;;;5055319;28;20052;-73
2023/07/31 13:51:46;;;;;;;4.88;2.30;;;;;;;;;;5042119;28;20045;-71
2023/07/31 13:54:31;;;;;;;9.02;3.08;;;;;;;;;;5055997;28;20024;-73
2023/07/31 13:57:17;;;;;;;10.93;3.20;;;;;;;;;;5056360;28;20048;-74
2023/07/31 14:00:02;;;;;;;9.32;3.63;;;;;;;;;;5056876;28;20032;-74
2023/07/31 14:02:47;;;;;;;6.70;2.78;;;;;;;;;;5055108;28;20406;-74
2023/07/31 14:05:33;;;;;;;5.78;2.38;;;;;;;;;;5056504;28;20645;-75
2023/07/31 14:08:18;;;;;;;4.15;2.20;;;;;;;;;;5039116;28;20037;-77
2023/07/31 14:11:03;;;;;;;6.28;2.70;;;;;;;;;;5038130;28;20036;-74
2023/07/31 14:13:50;;;;;;;14.10;3.30;;;;;;;;;;5041580;28;20062;-71
2023/07/31 14:16:35;;;;;;;7.22;2.97;;;;;;;;;;5055683;28;20042;-75
2023/07/31 14:19:20;;;;;;;5.20;2.55;;;;;;;;;;5052657;28;20460;-74
2023/07/31 14:22:06;;;;;;;6.50;3.10;;;;;;;;;;5050057;28;20230;-75
2023/07/31 14:24:51;;;;;;;5.40;2.28;;;;;;;;;;5034646;28;20084;-76
2023/07/31 14:27:36;;;;;;;6.18;2.83;;;;;;;;;;5056095;28;20502;-78
2023/07/31 14:30:21;;;;;;;6.07;2.85;;;;;;;;;;5050385;28;20024;-70
2023/07/31 14:33:07;;;;;;;4.25;2.20;;;;;;;;;;5058324;28;20025;-70
2023/07/31 14:35:52;;;;;;;3.65;2.22;;;;;;;;;;5055350;28;20487;-69
2023/07/31 14:38:37;;;;;;;5.00;2.80;;;;;;;;;;5052111;28;20025;-68
2023/07/31 14:41:23;;;;;;;9.65;3.30;;;;;;;;;;5061801;28;20071;-69
2023/07/31 14:44:08;;;;;;;6.18;2.72;;;;;;;;;;5053615;28;20060;-68
2023/07/31 14:46:53;;;;;;;5.15;2.70;;;;;;;;;;5042808;28;20029;-70
2023/07/31 14:49:38;;;;;;;5.85;2.70;;;;;;;;;;5040169;28;20029;-75
2023/07/31 14:52:24;;;;;;;6.05;2.78;;;;;;;;;;5037093;28;20083;-78
2023/07/31 14:55:09;;;;;;;7.32;3.15;;;;;;;;;;5051073;28;20039;-77
2023/07/31 14:57:54;;;;;;;5.88;2.20;;;;;;;;;;5054188;28;20029;-77
2023/07/31 15:00:40;;;;;;;6.03;2.50;;;;;;;;;;5055229;28;20035;-79
2023/07/31 15:03:26;;;;;;;5.85;2.35;;;;;;;;;;5053649;28;20020;-79
2023/07/31 15:06:12;;;;;;;5.32;2.60;;;;;;;;;;5053967;28;20039;-77
2023/07/31 15:08:57;;;;;;;6.72;2.55;;;;;;;;;;5048611;28;20060;-78
2023/07/31 15:11:43;;;;;;;5.90;2.53;;;;;;;;;;5054397;28;20547;-77
2023/07/31 15:14:30;;;;;;;4.30;2.65;;;;;;;;;;5043439;28;20538;-77
2023/07/31 15:17:15;;;;;;;5.03;2.55;;;;;;;;;;5054865;28;20072;-78
2023/07/31 15:20:01;;;;;;;4.78;2.17;;;;;;;;;;5035791;28;20535;-77
2023/07/31 15:22:46;;;;;;;4.85;2.58;;;;;;;;;;5054289;28;20138;-76
2023/07/31 15:25:31;;;;;;;7.88;3.00;;;;;;;;;;5039053;28;21253;-76
2023/07/31 15:28:17;;;;;;;6.32;2.60;;;;;;;;;;5051578;28;20043;-68
2023/07/31 15:31:03;;;;;;;5.47;2.53;;;;;;;;;;5055416;28;20540;-70
2023/07/31 15:33:48;;;;;;;4.45;2.47;;;;;;;;;;5042648;28;20043;-70
2023/07/31 15:36:33;;;;;;;5.63;3.17;;;;;;;;;;5054861;28;20158;-71
2023/07/31 15:39:18;;;;;;;4.80;2.53;;;;;;;;;;5047312;28;20029;-68
2023/07/31 15:42:04;;;;;;;5.13;2.58;;;;;;;;;;5049215;28;20028;-69
2023/07/31 15:44:49;;;;;;;6.38;2.47;;;;;;;;;;5054592;28;20653;-69
2023/07/31 15:47:34;;;;;;;12.07;3.28;;;;;;;;;;5056403;28;20033;-76
2023/07/31 15:50:19;;;;;;;11.65;3.70;;;;;;;;;;5053524;28;20456;-76
2023/07/31 15:53:05;;;;;;;5.72;2.30;;;;;;;;;;5054646;28;20059;-78
2023/07/31 15:55:50;;;;;;;5.47;2.85;;;;;;;;;;5053132;28;20042;-78
2023/07/31 15:58:35;;;;;;;5.95;3.20;;;;;;;;;;5041227;28;20031;-76
2023/07/31 16:01:20;;;;;;;5.80;2.75;;;;;;;;;;5033842;28;20382;-77
2023/07/31 16:04:05;;;;;;;6.20;3.15;;;;;;;;;;5034887;28;20035;-73
2023/07/31 16:06:51;;;;;;;6.55;2.83;;;;;;;;;;5048439;28;20066;-72
2023/07/31 16:09:36;;;;;;;6.53;2.38;;;;;;;;;;5050359;28;22693;-74
2023/07/31 16:12:21;;;;;;;7.00;3.67;;;;;;;;;;5033798;28;20033;-72
2023/07/31 16:15:07;;;;;;;5.88;2.70;;;;;;;;;;5049418;28;20183;-75
2023/07/31 16:17:52;;;;;;;5.93;2.75;;;;;;;;;;5051007;28;20036;-71
2023/07/31 16:20:37;;;;;;;4.40;2.47;;;;;;;;;;5051442;28;20397;-77
2023/07/31 16:23:23;;;;;;;5.25;2.15;;;;;;;;;;5051188;28;20037;-76
2023/07/31 16:26:08;;;;;;;9.13;2.90;;;;;;;;;;5049700;28;20474;-71
2023/07/31 16:28:53;;;;;;;6.07;3.40;;;;;;;;;;5054724;28;20034;-67
2023/07/31 16:31:38;;;;;;;6.35;3.00;;;;;;;;;;5047396;28;20032;-69
2023/07/31 16:34:24;;;;;;;5.10;3.00;;;;;;;;;;5050644;28;20276;-68